This is the latest recevied weather packets stored in our database for station/object vk4vs. If no packets are shown the sender has not sent any weather packets the latest 10 day(s).
| Time | Temp. | Humidity | Pressure | Rain* | Wind** | Luminosity | Snow |
|---|---|---|---|---|---|---|---|
| 1777777253 | 18.33° C | 74% | 1020 hPa | 0 mm | - | - | - |
| 1777775454 | 18.33° C | 76% | 1020.2 hPa | 0 mm | - | - | - |
| 1777773653 | 16.67° C | 79% | 1020.6 hPa | 0 mm | - | - | - |
| 1777771854 | 16.67° C | 82% | 1021.1 hPa | 0 mm | - | - | - |
| 1777770053 | 16.11° C | 83% | 1021.6 hPa | 0 mm | - | - | - |
| 1777768254 | 15.56° C | 85% | 1021.8 hPa | 0 mm | - | - | - |
| 1777766453 | 15° C | 86% | 1021.8 hPa | 0 mm | - | - | - |
| 1777764653 | 14.44° C | 89% | 1021.9 hPa | 0 mm | - | - | - |
| 1777762853 | 14.44° C | 90% | 1022 hPa | 0 mm | - | - | - |
| 1777761053 | 13.33° C | 95% | 1022 hPa | 0 mm | - | - | - |
| 1777759253 | 12.78° C | 97% | 1021.6 hPa | 0 mm | - | - | - |
| 1777757454 | 12.22° C | 98% | 1021.1 hPa | 0 mm | - | - | - |
| 1777755654 | 11.67° C | 98% | 1020.9 hPa | 0 mm | - | - | - |
| 1777753854 | 11.67° C | 97% | 1020.5 hPa | 0 mm | - | - | - |
| 1777752054 | 11.67° C | 97% | 1020.6 hPa | 0 mm | - | - | - |
| 1777750253 | 12.22° C | 97% | 1020.4 hPa | 0 mm | - | - | - |
| 1777748453 | 12.22° C | 97% | 1020.3 hPa | 0 mm | - | - | - |
| 1777746654 | 12.22° C | 97% | 1020.1 hPa | 0 mm | - | - | - |
| 1777744853 | 12.22° C | 97% | 1020 hPa | 0 mm | - | - | - |
| 1777743054 | 12.22° C | 97% | 1020.5 hPa | 0 mm | - | - | - |
| 1777741254 | 12.22° C | 97% | 1020.6 hPa | 0 mm | - | - | - |
| 1777739454 | 12.22° C | 97% | 1020.7 hPa | 0 mm | - | - | - |
| 1777737653 | 12.22° C | 97% | 1020.8 hPa | 0.25 mm | - | - | - |
| 1777735853 | 12.78° C | 97% | 1021.2 hPa | 0.25 mm | - | - | - |
| 1777732254 | 12.78° C | 97% | 1021.4 hPa | 0.25 mm | - | - | - |
* Rain latest hour (hover to see other rain measurements)
** Current wind speed in m/s (hover to see current wind gust speed)